WetterOnline ( https://www.wetteronline.at )

Wetter aktuell Fürstenzell

Aktuelles Wetter: Fürstenzell (480m)

6-stündlich | Neueste Meldungen
Ortszeit Temperatur Wetter
So, 15.09. 20:00 19.8° C fast wolkenlos
So, 15.09. 14:00 21.8° C wolkenlos
So, 15.09. 8:00 11.9° C wolkenlos
So, 15.09. 2:00 14.4° C wolkig
Sa, 14.09. 20:00 16.9° C wolkenlos
Sa, 14.09. 14:00 21.2° C wolkig
Sa, 14.09. 8:00 15.3° C bedeckt
Sa, 14.09. 2:00 16.9° C bedeckt
Ortszeit Temperatur Wetter
So, 15.09. 21:30 19.0° C leicht bewölkt
So, 15.09. 21:20 19.0° C leicht bewölkt
So, 15.09. 21:10 19.1° C fast wolkenlos
So, 15.09. 21:00 19.4° C fast wolkenlos
So, 15.09. 20:50 19.4° C fast wolkenlos
So, 15.09. 20:40 19.5° C fast wolkenlos
So, 15.09. 20:30 19.1° C wolkenlos
So, 15.09. 20:00 19.8° C fast wolkenlos
So, 15.09. 19:30 21.1° C wolkenlos
So, 15.09. 19:00 21.5° C wolkenlos
So, 15.09. 18:30 22.1° C wolkenlos
Ortszeit Relative Feuchte Sichtweite
So, 15.09. 20:00 72% 30 km
So, 15.09. 14:00 55% 19 km
So, 15.09. 8:00 92% 10 km
So, 15.09. 2:00 81% 26 km
Sa, 14.09. 20:00 78% 30 km
Sa, 14.09. 14:00 63% 18 km
Sa, 14.09. 8:00 93% 13 km
Sa, 14.09. 2:00 85% 13 km
Ortszeit Relative Feuchte Sichtweite
So, 15.09. 21:30 76% 21 km
So, 15.09. 21:20 76% -
So, 15.09. 21:10 75% -
So, 15.09. 21:00 74% 28 km
So, 15.09. 20:50 74% -
So, 15.09. 20:40 73% -
So, 15.09. 20:30 75% 26 km
So, 15.09. 20:00 72% 30 km
So, 15.09. 19:30 66% 35 km
So, 15.09. 19:00 65% 30 km
So, 15.09. 18:30 62% 35 km
Ortszeit Niederschlagsmenge Niederschlagsart
So, 15.09. 20:00 0.0 l/m2 in 12 Std. -
So, 15.09. 14:00 0.0 l/m2 in 6 Std. -
So, 15.09. 8:00 0.0 l/m2 in 12 Std. -
So, 15.09. 2:00 0.0 l/m2 in 6 Std. -
Sa, 14.09. 20:00 0.0 l/m2 in 12 Std. -
Sa, 14.09. 14:00 0.0 l/m2 in 6 Std. -
Sa, 14.09. 8:00 0.0 l/m2 in 12 Std. -
Sa, 14.09. 2:00 0.0 l/m2 in 6 Std. -
Ortszeit Niederschlagsmenge Niederschlagsart
So, 15.09. 21:30 0.0 l/m2 in 1 Std. -
So, 15.09. 21:20 keine Meldung -
So, 15.09. 21:10 keine Meldung -
So, 15.09. 21:00 0.0 l/m2 in 1 Std. -
So, 15.09. 20:50 keine Meldung -
So, 15.09. 20:40 keine Meldung -
So, 15.09. 20:30 0.0 l/m2 in 1 Std. -
So, 15.09. 20:00 0.0 l/m2 in 1 Std. -
So, 15.09. 19:30 0.0 l/m2 in 1 Std. -
So, 15.09. 19:00 0.0 l/m2 in 1 Std. -
So, 15.09. 18:30 0.0 l/m2 in 1 Std. -
Ortszeit Stärke Spitze Richtung
km/h Bft. km/h Grad Sektor
So, 15.09. 20:00 4 1 18 170° S
So, 15.09. 14:00 7 2 14 160° S
So, 15.09. 8:00 4 1 11 40° NO
So, 15.09. 2:00 9 2 22 120° SO
Sa, 14.09. 20:00 7 2 22 90° O
Sa, 14.09. 14:00 11 2 25 110° O
Sa, 14.09. 8:00 11 2 14 50° NO
Sa, 14.09. 2:00 7 2 11 20° N
Ortszeit Stärke Spitze Richtung
km/h Bft. km/h Grad Sektor
So, 15.09. 21:30 4 1 4 180° S
So, 15.09. 21:20 4 1 - 180° S
So, 15.09. 21:10 4 1 - 190° S
So, 15.09. 21:00 4 1 7 180° S
So, 15.09. 20:50 4 1 - 180° S
So, 15.09. 20:40 4 1 - 160° S
So, 15.09. 20:30 4 1 4 160° S
So, 15.09. 20:00 4 1 7 170° S
So, 15.09. 19:30 6 1 7 140° SO
So, 15.09. 19:00 7 2 11 140° SO
So, 15.09. 18:30 7 2 11 140° SO
Ortszeit Untergrenze Bedeckung Gattung
total tief tief mittel hoch
So, 15.09. 20:00 12000 m 1/8 0/8 - - -
So, 15.09. 14:00 - 0/8 0/8 - - -
So, 15.09. 8:00 - 0/8 0/8 - - -
So, 15.09. 2:00 9000 m 8/8 0/8 - - -
Sa, 14.09. 20:00 - 0/8 0/8 - - -
Sa, 14.09. 14:00 870 m 7/8 4/8 - - -
Sa, 14.09. 8:00 1020 m 8/8 8/8 - - -
Sa, 14.09. 2:00 1800 m 8/8 8/8 - - -
Ortszeit Bedeckungsgrad in Achtel und Wolkenuntergrenze
So, 15.09. 21:30 3(12000m)
So, 15.09. 21:20 3(12000m)
So, 15.09. 21:10 1(12000m)
So, 15.09. 21:00 1(12000m)
So, 15.09. 20:50 1(12000m)
So, 15.09. 20:40 1(12000m)
So, 15.09. 20:30 keine Wolken
So, 15.09. 20:00 1(12000m)
So, 15.09. 19:30 keine Wolken
So, 15.09. 19:00 keine Wolken
So, 15.09. 18:30 keine Wolken
Ortszeit Luftdruck NN (hPa) Tendenz (hPa in 3 Std.)
So, 15.09. 20:00 1021 - 0,7
So, 15.09. 14:00 1023 - 1,5
So, 15.09. 8:00 1027 - 0,5
So, 15.09. 2:00 1028 - 1,2
Sa, 14.09. 20:00 1029 - 0,1
Sa, 14.09. 14:00 1029 - 1,1
Sa, 14.09. 8:00 1031 + 0,5
Sa, 14.09. 2:00 1031 - 0,3
Ortszeit Luftdruck NN (hPa) Tendenz (hPa in 3 Std.)
So, 15.09. 21:30 1021 + 0,1
So, 15.09. 21:20 1021 keine Meldung
So, 15.09. 21:10 1021 keine Meldung
So, 15.09. 21:00 1021 - 0,3
So, 15.09. 20:50 1021 keine Meldung
So, 15.09. 20:40 1021 keine Meldung
So, 15.09. 20:30 1021 - 0,4
So, 15.09. 20:00 1021 - 0,7
So, 15.09. 19:30 1020 - 1,2
So, 15.09. 19:00 1020 - 1,5
So, 15.09. 18:30 1020 - 1,7
Ortszeit Schneehöhe (cm)
So, 15.09. 20:00 -
So, 15.09. 14:00 -
So, 15.09. 8:00 -
So, 15.09. 2:00 -
Sa, 14.09. 20:00 -
Sa, 14.09. 14:00 -
Sa, 14.09. 8:00 -
Sa, 14.09. 2:00 -
Ortszeit Schneehöhe (cm)
So, 15.09. 21:30 -
So, 15.09. 21:20 -
So, 15.09. 21:10 -
So, 15.09. 21:00 -
So, 15.09. 20:50 -
So, 15.09. 20:40 -
So, 15.09. 20:30 -
So, 15.09. 20:00 -
So, 15.09. 19:30 -
So, 15.09. 19:00 -
So, 15.09. 18:30 -
Link zu dieser Seite / Seite empfehlen

Das Wetter in ...